Arta, Greece

6:00 AM EET on March 06, 2015 (GMT +0200)
IWESTGRE4 | Change Station
CLOSE
Current Station
Personal Weather Station
Location: NEA KAMARINA (SV1JMO), WEST GREECE
Elevation: 52 ft
Nearby Weather Stations
Active Advisory: Thunderstorms

Elev 52 ft 38.93 °N, 20.85 °E | Updated 1 minute ago

Mostly Cloudy
Mostly Cloudy
55.9 °F
Feels Like 55.9 °F
N
1.2
Wind Variable Wind from SE
Gusts 4.5 mph

Today
High -- | Low -- °F
--% Chance of Precip.
Yesterday
High -- | Low -- °F
Precip. -- in
7:02 AM 6:33 PM
Full, 100% visible
Pressure 29.92 in
Visibility 6.2 miles
Clouds Few 1400 ft
Mostly Cloudy 2500 ft
Mostly Cloudy 8000 ft
Dew Point 48 °F
Humidity 76%
Rainfall in
Snow Depth Not available.
UV 0 out of 12
Pollen Not available.
Air Quality Not available.
Flu Activity Not available.
METAR LGPZ 060350Z 24010KT 9999 FEW014TCU BKN025 BKN080 14/07 Q1013 BLU

More Conditions Fewer Conditions

Pressure 29.92 in
Visibility 6.2 miles
Clouds Few 1400 ft
Mostly Cloudy 2500 ft
Mostly Cloudy 8000 ft
Dew Point 48 °F
Humidity 76%
Rainfall in
Snow Depth Not available.
UV 0 out of 12
Pollen Not available.
Air Quality Not available.
Flu Activity Not available.
METAR LGPZ 060350Z 24010KT 9999 FEW014TCU BKN025 BKN080 14/07 Q1013 BLU

More Conditions Fewer Conditions

10-Day Weather Forecast

Almanac

Astronomy

Mar. 06, 2015 Rise Set
Actual Time
Civil Twilight
Nautical Twilight
Astronomical Twilight
Moon
Length of Visible Light
Length of Day
Tomorrow will be .
, % of the Moon is Illuminated

Today's Extremes

Country Highs Country Lows

Community

WunderPhotos

Upload Photos

1,803,176 photos uploaded!

WunderBlogs® & News

Nearby

Air Quality

  Air Quality AQ Index Pollutant
Not available.

Snow Depth

Station Depth Elevation

Earthquake Activity

City Distance Mag. Time & Date
Minimum magnitude displayed is 2.5.

Coastal Water Temperatures

Place Temperature

Nearby Weather Stations